Terminal Aerodrome Forecast
Issued by NWS Cleveland, OH

Home | Current Version | Previous Version | Graphics & Text | Print | Product List | Glossary Off
Versions: 1 2 3 4 5 6 7 8 9 10 11 12 13 14 15 16 17 18 19 20 21

000
FTUS41 KCLE 041700
TAFCAK
TAF
KCAK 041726Z 0418/0518 29008KT P6SM OVC015
     FM042200 30008KT 5SM -SN SCT008 OVC015
      TEMPO 0501/0505 3SM -SN OVC008
     FM050600 33007KT P6SM OVC015=

USA.gov is the U.S. government's official web portal to all federal, state and local government web resources and services.